Time;durP1;ratioP1;P1;durP2;ratioP2;P2;SDS_P1;SDS_P2;PMS_P1;PMS_P2;Temp;Humidity;BMP_temperature;BMP_pressure;BME280_temperature;BME280_humidity;BME280_pressure;Samples;Min_cycle;Max_cycle;Signal;HPM_P1;HPM_P2
2022/01/15 00:01:38;;;;;;;;;;;;;;;20.74;47.03;102530.91;5009106;28;4206;-66
2022/01/15 00:04:04;;;;;;;;;;;;;;;20.74;46.98;102530.91;5030178;28;4358;-68
2022/01/15 00:06:31;;;;;;;;;;;;;;;20.74;47.16;102525.16;5032266;28;4075;-67
2022/01/15 00:08:57;;;;;;;;;;;;;;;20.77;47.14;102523.91;5027449;28;4326;-66
2022/01/15 00:11:23;;;;;;;;;;;;;;;20.76;47.09;102533.94;5028254;28;4430;-67
2022/01/15 00:13:57;;;;;;;;;;;;;;;20.76;47.15;102533.94;5022513;28;5260;-68
2022/01/15 00:16:33;;;;;;;;;;;;;;;20.74;47.21;102525.16;5028718;28;5683;-66
2022/01/15 00:19:07;;;;;;;;;;;;;;;20.67;47.13;102520.31;5030350;28;5079;-67
2022/01/15 00:21:34;;;;;;;;;;;;;;;20.70;47.10;102524.84;5027613;28;4241;-67
2022/01/15 00:24:00;;;;;;;;;;;;;;;20.68;47.25;102516.84;5029263;28;4262;-66
2022/01/15 00:26:26;;;;;;;;;;;;;;;20.70;46.81;102524.84;5030492;28;4216;-67
2022/01/15 00:28:53;;;;;;;;;;;;;;;20.65;47.19;102523.06;5026447;28;4083;-66
2022/01/15 00:31:19;;;;;;;;;;;;;;;20.63;47.35;102520.78;5027171;28;4122;-67
2022/01/15 00:33:45;;;;;;;;;;;;;;;20.66;47.19;102530.31;5027905;28;4249;-67
2022/01/15 00:36:12;;;;;;;;;;;;;;;20.69;47.12;102523.34;5029534;28;4159;-67
2022/01/15 00:38:38;;;;;;;;;;;;;;;20.71;47.09;102532.13;5028546;28;4132;-67
2022/01/15 00:41:04;;;;;;;;;;;;;;;20.75;47.01;102517.25;5029612;28;4196;-67
2022/01/15 00:43:31;;;;;;;;;;;;;;;20.70;47.06;102531.34;5027169;28;4244;-67
2022/01/15 00:45:58;;;;;;;;;;;;;;;20.68;47.31;102516.06;5027044;28;4254;-67
2022/01/15 00:48:25;;;;;;;;;;;;;;;20.65;47.21;102512.28;5029288;28;4317;-67
2022/01/15 00:50:51;;;;;;;;;;;;;;;20.73;47.09;102512.13;5027969;28;4846;-67
2022/01/15 00:53:17;;;;;;;;;;;;;;;20.68;46.93;102524.69;5028943;28;4214;-67
2022/01/15 00:55:43;;;;;;;;;;;;;;;20.65;47.11;102523.81;5027007;28;4395;-67
2022/01/15 00:58:10;;;;;;;;;;;;;;;20.68;47.24;102528.34;5028264;28;6416;-67
2022/01/15 01:00:36;;;;;;;;;;;;;;;20.66;47.21;102524.56;5023052;28;4269;-67
2022/01/15 01:03:03;;;;;;;;;;;;;;;20.73;47.15;102517.88;5026299;28;4213;-66
2022/01/15 01:05:29;;;;;;;;;;;;;;;20.75;47.10;102515.13;5028730;28;4157;-66
2022/01/15 01:07:56;;;;;;;;;;;;;;;20.68;47.08;102516.06;5025599;28;4162;-67
2022/01/15 01:22:42;;;;;;;;;;;;;;;20.62;47.24;102512.78;5024540;28;5405;-67
2022/01/15 01:24:41;;;;;;;;;;;;;;;20.71;47.19;102517.75;5029815;28;4204;-67
2022/01/15 01:27:18;;;;;;;;;;;;;;;20.68;47.12;102513.19;5026885;28;4366;-67
2022/01/15 01:30:05;;;;;;;;;;;;;;;20.68;46.97;102516.06;5029307;28;5395;-67
2022/01/15 01:35:31;;;;;;;;;;;;;;;20.63;47.32;102511.38;5027076;28;4156;-66
2022/01/15 01:38:07;;;;;;;;;;;;;;;20.64;47.35;102507.16;5026459;28;4293;-67
2022/01/15 01:40:39;;;;;;;;;;;;;;;20.58;47.50;102503.84;5030914;28;4233;-67
2022/01/15 01:43:39;;;;;;;;;;;;;;;20.63;47.34;102503.50;5026949;28;5250;-67
2022/01/15 01:46:13;;;;;;;;;;;;;;;20.62;47.41;102495.50;5027595;28;4313;-67
2022/01/15 01:48:40;;;;;;;;;;;;;;;20.63;47.09;102497.00;5029184;28;5392;-67
2022/01/15 01:51:07;;;;;;;;;;;;;;;20.65;47.23;102505.78;5029958;28;4257;-66
2022/01/15 01:53:36;;;;;;;;;;;;;;;20.63;47.07;102494.13;5029224;28;5397;-67
2022/01/15 01:56:03;;;;;;;;;;;;;;;20.64;47.12;102505.03;5011401;28;4280;-66
2022/01/15 01:58:29;;;;;;;;;;;;;;;20.65;47.18;102505.78;5027002;28;5185;-67
2022/01/15 02:00:56;;;;;;;;;;;;;;;20.66;46.95;102495.75;5028583;28;4479;-67
2022/01/15 02:03:22;;;;;;;;;;;;;;;20.80;46.93;102499.69;5027064;28;4088;-67
2022/01/15 02:05:49;;;;;;;;;;;;;;;20.88;46.49;102493.72;5028554;28;4352;-67
2022/01/15 02:08:16;;;;;;;;;;;;;;;20.87;46.74;102492.97;5027272;28;5168;-67
2022/01/15 02:10:43;;;;;;;;;;;;;;;20.88;46.31;102491.59;5033295;28;5334;-67
2022/01/15 02:13:10;;;;;;;;;;;;;;;20.84;46.58;102491.28;5030207;28;4344;-67
2022/01/15 02:15:36;;;;;;;;;;;;;;;20.83;46.61;102498.44;5029989;28;5218;-67
2022/01/15 02:18:03;;;;;;;;;;;;;;;20.86;46.24;102493.56;5033843;28;4176;-66
2022/01/15 02:25:54;;;;;;;;;;;;;;;20.86;46.34;102494.31;5030502;28;5437;-68
2022/01/15 02:28:22;;;;;;;;;;;;;;;20.82;46.73;102493.28;5029283;28;4237;-67
2022/01/15 02:30:52;;;;;;;;;;;;;;;20.85;46.23;102492.81;5031732;28;5310;-67
2022/01/15 02:33:19;;;;;;;;;;;;;;;20.81;46.73;102492.53;5037558;28;4082;-67
2022/01/15 02:35:45;;;;;;;;;;;;;;;20.85;46.79;102498.59;5032107;28;4078;-67
2022/01/15 02:38:12;;;;;;;;;;;;;;;20.71;46.47;102494.72;5030122;28;4309;-67
2022/01/15 02:40:38;;;;;;;;;;;;;;;20.58;47.07;102493.06;5021311;28;4078;-65
2022/01/15 02:43:05;;;;;;;;;;;;;;;20.63;46.78;102494.13;5029620;28;4245;-67
2022/01/15 02:45:36;;;;;;;;;;;;;;;20.65;46.95;102482.75;5031171;28;4275;-66
2022/01/15 02:48:03;;;;;;;;;;;;;;;20.63;47.02;102491.25;5030611;28;4174;-67
2022/01/15 02:50:29;;;;;;;;;;;;;;;20.61;47.02;102493.97;5030431;28;4178;-67
2022/01/15 02:52:59;;;;;;;;;;;;;;;20.66;46.89;102496.53;5032591;28;5437;-67
2022/01/15 02:55:25;;;;;;;;;;;;;;;20.64;47.03;102498.53;5029716;28;4533;-67
2022/01/15 02:57:51;;;;;;;;;;;;;;;20.71;46.88;102497.59;5031418;28;4523;-67
2022/01/15 03:00:18;;;;;;;;;;;;;;;20.65;46.83;102489.25;5033368;28;4224;-68
2022/01/15 03:02:44;;;;;;;;;;;;;;;20.63;46.89;102486.22;5029400;28;4378;-67
2022/01/15 03:05:11;;;;;;;;;;;;;;;20.62;47.24;102496.25;5031859;28;4251;-68
2022/01/15 03:07:37;;;;;;;;;;;;;;;20.57;47.30;102488.69;5029773;28;4385;-68
2022/01/15 03:10:04;;;;;;;;;;;;;;;20.64;46.96;102492.78;5031955;28;4253;-67
2022/01/15 03:12:30;;;;;;;;;;;;;;;20.65;46.75;102491.38;5032711;28;4253;-67
2022/01/15 03:15:01;;;;;;;;;;;;;;;20.62;46.94;102489.75;5030935;28;4034;-67
2022/01/15 03:17:27;;;;;;;;;;;;;;;20.71;46.60;102491.81;5031672;28;4550;-67
2022/01/15 03:19:54;;;;;;;;;;;;;;;20.79;46.60;102480.13;5028426;28;4332;-68
2022/01/15 03:22:21;;;;;;;;;;;;;;;20.88;46.39;102479.31;5030140;28;4368;-67
2022/01/15 03:24:48;;;;;;;;;;;;;;;20.81;46.59;102483.91;5029415;28;4170;-68
2022/01/15 03:27:14;;;;;;;;;;;;;;;20.86;46.39;102482.81;5030878;28;5403;-68
2022/01/15 03:29:40;;;;;;;;;;;;;;;20.81;46.60;102477.38;5028826;28;4927;-68
2022/01/15 03:32:07;;;;;;;;;;;;;;;20.82;46.59;102476.78;5030249;28;4074;-68
2022/01/15 03:34:34;;;;;;;;;;;;;;;20.80;46.71;102476.63;5028454;28;4256;-67
2022/01/15 03:37:01;;;;;;;;;;;;;;;20.80;46.44;102481.63;5030748;28;4306;-67
2022/01/15 03:39:27;;;;;;;;;;;;;;;20.81;46.14;102481.03;5029471;28;4207;-67
2022/01/15 03:41:53;;;;;;;;;;;;;;;20.82;46.62;102473.13;5030675;28;4306;-67
2022/01/15 03:44:20;;;;;;;;;;;;;;;20.84;46.30;102451.00;5033235;28;6381;-67
2022/01/15 03:46:46;;;;;;;;;;;;;;;20.81;46.34;102449.34;5030647;28;4222;-68
2022/01/15 03:49:13;;;;;;;;;;;;;;;20.81;46.42;102452.22;5030282;28;4113;-67
2022/01/15 03:51:39;;;;;;;;;;;;;;;20.84;46.29;102445.22;5028607;28;4238;-67
2022/01/15 03:54:05;;;;;;;;;;;;;;;20.86;46.35;102445.38;5028625;28;4149;-67
2022/01/15 03:56:32;;;;;;;;;;;;;;;20.91;46.31;102441.44;5030956;28;4006;-66
2022/01/15 03:58:58;;;;;;;;;;;;;;;20.91;46.31;102441.44;5029875;28;4298;-67
2022/01/15 04:01:24;;;;;;;;;;;;;;;20.90;46.28;102439.16;5029908;28;5133;-67
2022/01/15 04:03:51;;;;;;;;;;;;;;;20.83;46.30;102435.09;5030808;28;4224;-67
2022/01/15 04:06:17;;;;;;;;;;;;;;;20.87;46.23;102429.63;5028250;28;5460;-67
2022/01/15 04:08:44;;;;;;;;;;;;;;;20.90;46.30;102434.13;5028955;28;4200;-67
2022/01/15 04:11:10;;;;;;;;;;;;;;;20.89;46.12;102438.41;5031608;28;4447;-67
2022/01/15 04:13:36;;;;;;;;;;;;;;;20.83;46.39;102429.34;5030219;28;5303;-67
2022/01/15 04:16:03;;;;;;;;;;;;;;;20.83;46.40;102426.44;5029939;28;4173;-67
2022/01/15 04:18:35;;;;;;;;;;;;;;;20.86;46.33;102418.72;5030297;28;5157;-67
2022/01/15 04:21:02;;;;;;;;;;;;;;;20.82;46.58;102429.94;5028011;28;4169;-67
2022/01/15 04:23:28;;;;;;;;;;;;;;;20.88;46.27;102431.13;5031114;28;4150;-67
2022/01/15 04:25:55;;;;;;;;;;;;;;;20.87;46.25;102435.38;5029533;28;4151;-68
2022/01/15 04:28:23;;;;;;;;;;;;;;;20.82;46.42;102427.06;5029908;28;4531;-67
2022/01/15 04:30:50;;;;;;;;;;;;;;;20.86;46.48;102422.34;5028905;28;4654;-67
2022/01/15 04:33:16;;;;;;;;;;;;;;;20.84;46.24;102418.56;5029989;28;4531;-68
2022/01/15 04:35:43;;;;;;;;;;;;;;;20.82;46.30;102415.53;5025674;28;4176;-68
2022/01/15 04:38:12;;;;;;;;;;;;;;;20.84;46.32;102419.31;5030437;28;4694;-68
2022/01/15 04:40:38;;;;;;;;;;;;;;;20.87;46.23;102406.59;5028228;28;4272;-68
2022/01/15 04:43:04;;;;;;;;;;;;;;;20.97;46.26;102408.66;5028919;28;4159;-67
2022/01/15 04:45:31;;;;;;;;;;;;;;;20.85;45.86;102409.31;5029278;28;4170;-67
2022/01/15 04:47:57;;;;;;;;;;;;;;;20.89;46.42;102415.38;5031673;28;4174;-68
2022/01/15 04:50:23;;;;;;;;;;;;;;;20.91;46.32;102408.97;5029760;28;4239;-67
2022/01/15 04:52:50;;;;;;;;;;;;;;;20.90;46.32;102411.09;5028967;28;4267;-67
2022/01/15 04:55:16;;;;;;;;;;;;;;;20.85;46.36;102422.97;5027144;28;5409;-67
2022/01/15 04:57:42;;;;;;;;;;;;;;;20.93;46.38;102427.16;5031765;28;4478;-67
2022/01/15 05:00:10;;;;;;;;;;;;;;;20.92;46.38;102437.16;5030519;28;4164;-68
2022/01/15 05:02:36;;;;;;;;;;;;;;;20.89;46.41;102429.75;5031387;28;4342;-68
2022/01/15 05:05:03;;;;;;;;;;;;;;;20.88;46.32;102431.13;5030307;28;5472;-68
2022/01/15 05:07:29;;;;;;;;;;;;;;;20.91;46.29;102435.66;5028674;28;5054;-68
2022/01/15 05:09:55;;;;;;;;;;;;;;;20.86;46.52;102436.72;5028614;28;4178;-67
2022/01/15 05:15:06;;;;;;;;;;;;;;;20.84;46.48;102442.34;5028408;28;4114;-67
2022/01/15 05:17:33;;;;;;;;;;;;;;;20.90;46.24;102433.38;5028588;28;4194;-67
2022/01/15 05:19:59;;;;;;;;;;;;;;;20.89;46.57;102441.28;5029524;28;4115;-67
2022/01/15 05:22:25;;;;;;;;;;;;;;;20.88;46.24;102442.63;5028383;28;4363;-67
2022/01/15 05:24:52;;;;;;;;;;;;;;;20.83;46.34;102446.59;5023790;28;4185;-66
2022/01/15 05:27:18;;;;;;;;;;;;;;;20.89;46.65;102447.03;5028814;28;4007;-66
2022/01/15 05:29:45;;;;;;;;;;;;;;;20.85;46.62;102449.63;5028430;28;4190;-67
2022/01/15 05:32:11;;;;;;;;;;;;;;;20.88;46.45;102454.16;5028053;28;4836;-66
2022/01/15 05:34:37;;;;;;;;;;;;;;;20.90;46.52;102450.66;5028946;28;4245;-66
2022/01/15 05:37:04;;;;;;;;;;;;;;;20.89;46.55;102458.56;5027785;28;4238;-66
2022/01/15 05:39:31;;;;;;;;;;;;;;;20.91;46.57;102452.16;5029653;28;4234;-66
2022/01/15 05:41:57;;;;;;;;;;;;;;;20.89;46.42;102444.16;5030666;28;4229;-66
2022/01/15 05:44:24;;;;;;;;;;;;;;;20.91;46.57;102463.69;5032010;28;4315;-66
2022/01/15 05:46:50;;;;;;;;;;;;;;;20.95;46.59;102451.72;5031929;28;4182;-66
2022/01/15 05:49:16;;;;;;;;;;;;;;;20.86;46.43;102467.66;5033660;28;4129;-67
2022/01/15 05:51:43;;;;;;;;;;;;;;;20.95;46.82;102466.09;5033742;28;4084;-66
2022/01/15 05:54:10;;;;;;;;;;;;;;;20.93;46.65;102458.06;5034087;28;4139;-66
2022/01/15 05:56:37;;;;;;;;;;;;;;;20.89;46.75;102472.97;5031442;28;5433;-66
2022/01/15 05:59:04;;;;;;;;;;;;;;;20.88;46.77;102464.94;5031092;28;5413;-66
2022/01/15 06:01:30;;;;;;;;;;;;;;;20.89;46.69;102464.31;5033574;28;5663;-66
2022/01/15 06:03:57;;;;;;;;;;;;;;;20.91;46.54;102469.44;5032679;28;6766;-66
2022/01/15 06:06:23;;;;;;;;;;;;;;;20.92;46.56;102454.44;5031504;28;4303;-66
2022/01/15 06:08:49;;;;;;;;;;;;;;;20.93;46.55;102467.47;5030819;28;4082;-66
2022/01/15 06:11:17;;;;;;;;;;;;;;;20.88;46.56;102459.91;5030492;28;4248;-66
2022/01/15 06:13:44;;;;;;;;;;;;;;;20.89;46.55;102461.44;5030721;28;5435;-66
2022/01/15 06:16:11;;;;;;;;;;;;;;;20.90;46.48;102462.19;5032525;28;5899;-66
2022/01/15 06:18:37;;;;;;;;;;;;;;;20.89;46.48;102464.31;5033318;28;4309;-66
2022/01/15 06:21:03;;;;;;;;;;;;;;;20.94;46.30;102459.59;5031612;28;4158;-66
2022/01/15 06:23:30;;;;;;;;;;;;;;;20.95;46.36;102457.47;5031847;28;4220;-66
2022/01/15 06:25:56;;;;;;;;;;;;;;;20.91;46.50;102452.94;5031593;28;4154;-66
2022/01/15 06:28:22;;;;;;;;;;;;;;;20.93;46.61;102458.06;5035474;28;4246;-66
2022/01/15 06:30:49;;;;;;;;;;;;;;;20.91;46.64;102458.69;5030290;28;4339;-66
2022/01/15 06:33:15;;;;;;;;;;;;;;;20.92;46.60;102451.56;5032939;28;5585;-66
2022/01/15 06:35:41;;;;;;;;;;;;;;;20.95;46.43;102448.81;5036358;28;4523;-67
2022/01/15 06:38:08;;;;;;;;;;;;;;;20.88;46.45;102459.91;5037195;28;4247;-67
2022/01/15 06:40:34;;;;;;;;;;;;;;;20.90;46.45;102462.94;5032010;28;4435;-66
2022/01/15 06:43:01;;;;;;;;;;;;;;;20.89;46.59;102454.91;5032023;28;4225;-66
2022/01/15 06:45:28;;;;;;;;;;;;;;;20.89;46.53;102446.25;5030367;28;4095;-67
2022/01/15 06:47:54;;;;;;;;;;;;;;;20.89;46.62;102455.69;5034348;28;4373;-67
2022/01/15 06:50:22;;;;;;;;;;;;;;;20.93;46.51;102450.19;5031268;28;4242;-67
2022/01/15 06:52:49;;;;;;;;;;;;;;;20.96;46.32;102453.97;5030829;28;4254;-67
2022/01/15 06:55:15;;;;;;;;;;;;;;;20.93;46.37;102449.44;5025204;28;4306;-67
2022/01/15 06:57:41;;;;;;;;;;;;;;;20.88;46.44;102462.78;5028132;28;4163;-67
2022/01/15 07:00:09;;;;;;;;;;;;;;;20.90;46.70;102471.56;5031811;28;5263;-67
2022/01/15 07:02:35;;;;;;;;;;;;;;;20.91;46.44;102470.22;5034133;28;4058;-68
2022/01/15 07:05:01;;;;;;;;;;;;;;;20.93;46.25;102472.47;5034227;28;4207;-67
2022/01/15 07:07:28;;;;;;;;;;;;;;;20.89;46.50;102483.69;5034752;28;5320;-66
2022/01/15 07:09:54;;;;;;;;;;;;;;;20.83;46.69;102481.16;5031633;28;4141;-66
2022/01/15 07:12:20;;;;;;;;;;;;;;;20.88;46.88;102477.19;5030184;28;5094;-66
2022/01/15 07:14:47;;;;;;;;;;;;;;;20.89;46.49;102484.47;5030596;28;4444;-66
2022/01/15 07:17:13;;;;;;;;;;;;;;;20.93;46.55;102484.75;5033308;28;4220;-67
2022/01/15 07:19:40;;;;;;;;;;;;;;;20.89;46.44;102484.47;5032407;28;4105;-66
2022/01/15 07:22:06;;;;;;;;;;;;;;;20.97;46.29;102483.53;5033730;28;4077;-66
2022/01/15 07:24:32;;;;;;;;;;;;;;;20.98;46.55;102480.03;5033496;28;4241;-67
2022/01/15 07:26:59;;;;;;;;;;;;;;;20.92;46.53;102480.34;5030836;28;4221;-66
2022/01/15 07:29:25;;;;;;;;;;;;;;;20.90;46.56;102485.97;5030169;28;4148;-66
2022/01/15 07:31:52;;;;;;;;;;;;;;;20.92;46.43;102489.00;5028026;28;4153;-66
2022/01/15 07:34:18;;;;;;;;;;;;;;;20.97;46.65;102489.28;5031503;28;4265;-62
2022/01/15 07:36:46;;;;;;;;;;;;;;;20.89;46.60;102501.75;5031391;28;5357;-62
2022/01/15 07:39:13;;;;;;;;;;;;;;;20.88;47.08;102511.00;5046820;28;5013;-62
2022/01/15 07:41:39;;;;;;;;;;;;;;;20.74;47.16;102502.13;5030222;28;4158;-62
2022/01/15 07:44:06;;;;;;;;;;;;;;;20.86;47.10;102502.97;5019188;28;4297;-65
2022/01/15 07:46:33;;;;;;;;;;;;;;;20.82;47.00;102502.69;5030867;28;4109;-63
2022/01/15 07:48:59;;;;;;;;;;;;;;;20.80;47.07;102493.91;5030047;28;4328;-62
2022/01/15 07:51:25;;;;;;;;;;;;;;;20.78;47.27;102496.66;5038574;28;4400;-62
2022/01/15 07:53:52;;;;;;;;;;;;;;;20.72;47.44;102513.47;5037331;28;5236;-62
2022/01/15 07:56:18;;;;;;;;;;;;;;;20.73;47.31;102512.13;5037314;28;4291;-62
2022/01/15 07:58:44;;;;;;;;;;;;;;;20.65;47.43;102508.66;5033681;28;4207;-62
2022/01/15 08:01:11;;;;;;;;;;;;;;;20.66;47.16;102507.28;5037346;28;4072;-62
2022/01/15 08:03:37;;;;;;;;;;;;;;;20.64;46.85;102504.28;5037157;28;6492;-62
2022/01/15 08:06:04;;;;;;;;;;;;;;;20.61;47.09;102505.47;5035107;28;4251;-62
2022/01/15 08:08:35;;;;;;;;;;;;;;;20.64;47.08;102499.28;5031914;28;4275;-62
2022/01/15 08:11:02;;;;;;;;;;;;;;;20.61;47.19;102505.47;5035363;28;4255;-62
2022/01/15 08:13:31;;;;;;;;;;;;;;;20.62;47.26;102501.25;5035418;28;4202;-63
2022/01/15 08:16:07;;;;;;;;;;;;;;;20.52;47.16;102501.22;5036046;28;4209;-62
2022/01/15 08:18:33;;;;;;;;;;;;;;;20.34;47.79;102511.44;5026252;28;4258;-63
2022/01/15 08:20:59;;;;;;;;;;;;;;;20.43;47.60;102508.56;5030383;28;4245;-62
2022/01/15 08:23:26;;;;;;;;;;;;;;;20.56;47.50;102520.94;5037517;28;5117;-63
2022/01/15 08:25:52;;;;;;;;;;;;;;;20.59;47.11;102519.72;5033064;28;4279;-62
2022/01/15 08:28:19;;;;;;;;;;;;;;;20.67;47.26;102523.94;5036110;28;4258;-62
2022/01/15 08:30:45;;;;;;;;;;;;;;;20.71;47.19;102512.72;5034827;28;4225;-63
2022/01/15 08:33:11;;;;;;;;;;;;;;;20.71;47.33;102517.75;5033683;28;5275;-63
2022/01/15 08:35:38;;;;;;;;;;;;;;;20.71;47.27;102517.75;5033917;28;4469;-62
2022/01/15 08:38:04;;;;;;;;;;;;;;;20.75;47.34;102515.13;5037657;28;4206;-62
2022/01/15 08:40:32;;;;;;;;;;;;;;;20.65;47.37;102523.06;5033248;28;5626;-62
2022/01/15 08:42:59;;;;;;;;;;;;;;;20.73;47.47;102520.00;5036813;28;5236;-63
2022/01/15 08:45:26;;;;;;;;;;;;;;;20.74;47.48;102521.50;5034403;28;4097;-63
2022/01/15 08:47:53;;;;;;;;;;;;;;;20.70;47.46;102521.97;5035679;28;5140;-62
2022/01/15 08:50:20;;;;;;;;;;;;;;;20.74;47.39;102533.03;5037243;28;4309;-62
2022/01/15 08:52:46;;;;;;;;;;;;;;;20.69;47.44;102529.09;5035504;28;4244;-62
2022/01/15 08:55:12;;;;;;;;;;;;;;;20.69;47.52;102526.97;5034971;28;4202;-62
2022/01/15 08:57:39;;;;;;;;;;;;;;;20.67;47.72;102526.09;5032803;28;5333;-62
2022/01/15 09:00:06;;;;;;;;;;;;;;;20.70;47.48;102533.47;5034010;28;4190;-62
2022/01/15 09:02:32;;;;;;;;;;;;;;;20.69;47.58;102534.88;5036449;28;5402;-62
2022/01/15 09:04:59;;;;;;;;;;;;;;;20.70;47.48;102530.59;5036309;28;4252;-62
2022/01/15 09:07:25;;;;;;;;;;;;;;;20.68;47.43;102536.22;5033653;28;4487;-62
2022/01/15 09:09:51;;;;;;;;;;;;;;;20.64;47.41;102545.34;5033973;28;4242;-62
2022/01/15 09:12:20;;;;;;;;;;;;;;;20.61;47.22;102540.03;5032669;28;4246;-62
2022/01/15 09:14:46;;;;;;;;;;;;;;;20.08;44.28;102549.16;5026796;28;4239;-64
2022/01/15 09:17:12;;;;;;;;;;;;;;;17.34;42.36;102545.31;5031297;28;4536;-62
2022/01/15 09:19:39;;;;;;;;;;;;;;;18.45;44.94;102547.97;5034419;28;5422;-62
2022/01/15 09:22:09;;;;;;;;;;;;;;;19.70;43.80;102535.53;5035339;28;4240;-62
2022/01/15 09:24:35;;;;;;;;;;;;;;;20.15;44.39;102540.97;5033987;28;5603;-62
2022/01/15 09:30:12;;;;;;;;;;;;;;;20.32;44.74;102531.41;5036485;28;4194;-62
2022/01/15 09:32:34;;;;;;;;;;;;;;;20.53;44.62;102536.56;5033885;28;4158;-62
2022/01/15 09:35:01;;;;;;;;;;;;;;;20.62;44.97;102545.19;5034497;28;4195;-62
2022/01/15 09:37:27;;;;;;;;;;;;;;;20.59;45.27;102537.00;5037011;28;4243;-63
2022/01/15 09:39:53;;;;;;;;;;;;;;;20.65;45.17;102540.31;5035445;28;5521;-62
2022/01/15 09:42:23;;;;;;;;;;;;;;;20.68;45.30;102533.34;5035813;28;4290;-63
2022/01/15 09:44:49;;;;;;;;;;;;;;;20.63;45.36;102531.53;5035207;28;4227;-62
2022/01/15 09:47:15;;;;;;;;;;;;;;;20.65;45.64;102532.44;5036185;28;4430;-63
2022/01/15 09:49:47;;;;;;;;;;;;;;;20.65;46.01;102529.56;5036867;28;5492;-63
2022/01/15 09:52:13;;;;;;;;;;;;;;;20.62;46.23;102541.56;5012779;28;5437;-63
2022/01/15 09:54:39;;;;;;;;;;;;;;;20.66;46.15;102536.06;5034728;28;5294;-62
2022/01/15 09:57:06;;;;;;;;;;;;;;;20.68;46.30;102539.09;5037650;28;4218;-63
2022/01/15 09:59:33;;;;;;;;;;;;;;;20.67;46.36;102526.84;5032540;28;4257;-64
2022/01/15 10:02:02;;;;;;;;;;;;;;;20.68;46.40;102534.13;5036626;28;4145;-62
2022/01/15 10:04:32;;;;;;;;;;;;;;;20.68;46.25;102539.09;5035521;28;4148;-63
2022/01/15 10:07:08;;;;;;;;;;;;;;;20.75;46.17;102543.16;5034810;28;4518;-63
2022/01/15 10:09:35;;;;;;;;;;;;;;;20.71;46.23;102538.63;5031511;28;5512;-63
2022/01/15 10:12:01;;;;;;;;;;;;;;;20.71;46.59;102544.41;5035845;28;4195;-63
2022/01/15 10:14:36;;;;;;;;;;;;;;;20.74;46.47;102553.19;5034161;28;4176;-63
2022/01/15 10:17:20;;;;;;;;;;;;;;;20.72;46.68;102533.63;5034824;28;5323;-63
2022/01/15 10:19:46;;;;;;;;;;;;;;;20.70;46.64;102536.38;5035467;28;4209;-63
2022/01/15 10:22:13;;;;;;;;;;;;;;;20.72;46.75;102533.63;5036784;28;4183;-63
2022/01/15 10:24:40;;;;;;;;;;;;;;;20.83;46.44;102538.75;5035219;28;4149;-64
2022/01/15 10:27:20;;;;;;;;;;;;;;;20.78;46.78;102536.97;5034062;28;4005;-63
2022/01/15 10:29:53;;;;;;;;;;;;;;;20.88;46.76;102534.78;5034865;28;4180;-64
2022/01/15 10:32:19;;;;;;;;;;;;;;;20.88;46.81;102526.16;5036828;28;5136;-63
2022/01/15 10:34:45;;;;;;;;;;;;;;;20.80;46.91;102528.47;5033309;28;4324;-62
2022/01/15 10:37:16;;;;;;;;;;;;;;;20.36;46.42;102531.72;5033766;28;4255;-63
2022/01/15 10:39:59;;;;;;;;;;;;;;;20.40;47.73;102532.03;5049092;28;4203;-63
2022/01/15 10:42:25;;;;;;;;;;;;;;;20.58;47.16;102524.75;5036922;28;4076;-63
2022/01/15 10:44:52;;;;;;;;;;;;;;;20.70;46.73;102522.72;5034430;28;4343;-64
2022/01/15 10:47:19;;;;;;;;;;;;;;;20.75;46.75;102525.91;5038254;28;4086;-63
2022/01/15 10:49:45;;;;;;;;;;;;;;;20.76;46.73;102525.28;5037339;28;4264;-63
2022/01/15 10:52:11;;;;;;;;;;;;;;;20.75;46.62;102526.66;5038447;28;5480;-63
2022/01/15 10:54:48;;;;;;;;;;;;;;;20.71;47.00;102514.84;5035112;28;5406;-64
2022/01/15 10:57:15;;;;;;;;;;;;;;;20.70;46.69;102513.34;5038153;28;4840;-63
2022/01/15 10:59:41;;;;;;;;;;;;;;;20.77;46.73;102508.75;5018667;28;4141;-64
2022/01/15 11:02:19;;;;;;;;;;;;;;;20.72;46.83;102507.72;5021845;28;4193;-63
2022/01/15 11:04:46;;;;;;;;;;;;;;;20.75;46.90;102509.38;5036528;28;4251;-63
2022/01/15 11:07:15;;;;;;;;;;;;;;;20.79;46.69;102495.28;5035846;28;5348;-63
2022/01/15 11:09:42;;;;;;;;;;;;;;;20.79;46.67;102498.16;5038082;28;4168;-63
2022/01/15 11:12:09;;;;;;;;;;;;;;;20.77;46.53;102500.88;5038385;28;5412;-63
2022/01/15 11:14:35;;;;;;;;;;;;;;;20.81;46.69;102494.66;5018537;28;4080;-63
2022/01/15 11:17:02;;;;;;;;;;;;;;;20.81;46.61;102489.66;5034507;28;4364;-63
2022/01/15 11:19:32;;;;;;;;;;;;;;;20.82;46.67;102491.19;5037630;28;4188;-63
2022/01/15 11:22:00;;;;;;;;;;;;;;;20.79;46.57;102478.00;5036365;28;4309;-63
2022/01/15 11:24:26;;;;;;;;;;;;;;;20.74;46.61;102478.34;5038359;28;4199;-63
2022/01/15 11:26:57;;;;;;;;;;;;;;;20.81;46.52;102477.38;5035170;28;4289;-64
2022/01/15 11:29:26;;;;;;;;;;;;;;;20.75;46.73;102479.81;5035396;28;4136;-63
2022/01/15 11:31:55;;;;;;;;;;;;;;;20.77;46.71;102469.22;5035321;28;4165;-63
2022/01/15 11:34:23;;;;;;;;;;;;;;;20.79;46.50;102469.34;5021780;28;5303;-64
2022/01/15 11:36:49;;;;;;;;;;;;;;;20.81;46.47;102466.63;5036269;28;4206;-64
2022/01/15 11:39:20;;;;;;;;;;;;;;;20.80;46.67;102467.22;5037149;28;4334;-64
2022/01/15 11:41:49;;;;;;;;;;;;;;;20.80;46.79;102465.13;5037213;28;4343;-64
2022/01/15 11:44:16;;;;;;;;;;;;;;;20.80;46.91;102459.38;5037515;28;4214;-64
2022/01/15 11:46:49;;;;;;;;;;;;;;;20.78;46.85;102464.97;5034977;28;6447;-63
2022/01/15 11:49:21;;;;;;;;;;;;;;;20.74;46.96;102458.19;5034012;28;4251;-63
2022/01/15 11:52:14;;;;;;;;;;;;;;;20.81;46.80;102460.84;5033747;28;4164;-63
2022/01/15 11:54:40;;;;;;;;;;;;;;;20.83;46.99;102452.38;5035230;28;4192;-64
2022/01/15 11:57:19;;;;;;;;;;;;;;;20.83;47.06;102458.13;5038631;28;4257;-63
2022/01/15 11:59:49;;;;;;;;;;;;;;;20.91;47.08;102455.81;5035554;28;4188;-63
2022/01/15 12:02:31;;;;;;;;;;;;;;;20.83;46.75;102452.38;5033433;28;4195;-63
2022/01/15 12:05:15;;;;;;;;;;;;;;;20.85;47.38;102452.50;5036098;28;4098;-63
2022/01/15 12:07:42;;;;;;;;;;;;;;;20.88;47.22;102454.16;5035658;28;4199;-64
2022/01/15 12:10:15;;;;;;;;;;;;;;;20.84;47.55;102456.75;5027442;28;4263;-65
2022/01/15 12:12:46;;;;;;;;;;;;;;;20.27;48.00;102455.56;5030558;28;4260;-64
2022/01/15 12:15:26;;;;;;;;;;;;;;;20.66;47.72;102458.34;5036994;28;4134;-63
2022/01/15 12:17:54;;;;;;;;;;;;;;;20.84;47.34;102453.88;5018198;28;4378;-62
2022/01/15 12:20:21;;;;;;;;;;;;;;;20.80;47.43;102447.06;5032731;28;4227;-62
2022/01/15 12:22:49;;;;;;;;;;;;;;;20.82;47.57;102444.34;5027707;28;4178;-62
2022/01/15 12:25:18;;;;;;;;;;;;;;;20.89;47.42;102444.16;5030564;28;4177;-62
2022/01/15 12:27:45;;;;;;;;;;;;;;;20.87;47.45;102446.91;5035383;28;4203;-62
2022/01/15 12:30:20;;;;;;;;;;;;;;;20.89;47.93;102426.88;5034134;28;5426;-62
2022/01/15 12:32:50;;;;;;;;;;;;;;;20.86;47.85;102433.84;5031098;28;4201;-62
2022/01/15 12:35:22;;;;;;;;;;;;;;;20.86;47.96;102435.97;5036752;28;5285;-61
2022/01/15 12:38:00;;;;;;;;;;;;;;;20.88;48.01;102430.38;5034498;28;4842;-63
2022/01/15 12:40:30;;;;;;;;;;;;;;;20.85;47.74;102432.34;5031051;28;4322;-62
2022/01/15 12:42:57;;;;;;;;;;;;;;;20.94;47.73;102425.03;5034680;28;4193;-62
2022/01/15 12:45:24;;;;;;;;;;;;;;;20.95;47.90;102422.91;5036390;28;5456;-62
2022/01/15 12:47:50;;;;;;;;;;;;;;;20.89;48.10;102432.66;5033489;28;4384;-62
2022/01/15 12:50:16;;;;;;;;;;;;;;;20.92;47.70;102419.13;5033156;28;5397;-63
2022/01/15 12:52:43;;;;;;;;;;;;;;;20.93;47.89;102415.63;5034278;28;5854;-62
2022/01/15 12:55:09;;;;;;;;;;;;;;;20.96;47.81;102410.00;5033485;28;4164;-62
2022/01/15 12:57:41;;;;;;;;;;;;;;;20.87;48.07;102409.47;5033457;28;5281;-62
2022/01/15 13:00:28;;;;;;;;;;;;;;;20.97;47.86;102408.66;5034537;28;4234;-62
2022/01/15 13:02:58;;;;;;;;;;;;;;;20.92;47.94;102401.84;5036088;28;5628;-62
2022/01/15 13:05:26;;;;;;;;;;;;;;;20.91;48.01;102401.13;5035848;28;4298;-61
2022/01/15 13:07:53;;;;;;;;;;;;;;;20.98;47.85;102395.75;5032954;28;4158;-62
2022/01/15 13:10:49;;;;;;;;;;;;;;;20.92;47.79;102399.72;5035662;28;4313;-62
2022/01/15 13:13:22;;;;;;;;;;;;;;;20.92;48.07;102391.09;5031588;28;4237;-61
2022/01/15 13:15:56;;;;;;;;;;;;;;;20.90;47.94;102393.81;5035366;28;5210;-61
2022/01/15 13:18:23;;;;;;;;;;;;;;;20.97;47.93;102385.63;5036598;28;4229;-61